SCAR

Details ICAO SCAR (ARI)
Name CHACALLUTA
Region Chile
Timezone America/Santiago (UTC-3.0)
Plans Departing 31
Arriving 33
Stats Elevation 167 ft / 51 m (AMSL)
Location -18.348530° -70.338741°
Runways 1
Magnetic Variation 5.491° W
Sunrise 2017-12-18 10:02:32 UTC / 2017-12-18 07:02:32 Local
Sunset 2017-12-18 23:16:17 UTC / 2017-12-18 20:16:17 Local
Advertisement - Login to hide

Runways

ID Width Length Bearing (true) Bearing (mag) Surface Threshold Offset Overrun Length
02 148 ft / 45 m 7,184 ft / 2,190 m 19.17° 24.66° Asphalt 0 ft / 0 m 2,075 ft / 632 m
20 148 ft / 45 m 7,184 ft / 2,190 m 199.17° 204.66° Asphalt 0 ft / 0 m 197 ft / 60 m

Map

Weather


0- 5 10 15 20 25 30 35+ Temperature / ° C

Clouds and Precipitation
Forecast for 2017-12-18 06:00 UTC. Updated 28 minutes ago

Ground ~20,000 ft ~40,000 ft Winds

METAR

SCAR 180500Z 16004KT CAVOK 19/12 Q1013

TAF

Not found

Frequencies

Ground 121.90 MHz GND
Approach 119.90 MHz ARICA APP
Tower 118.50 MHz ARICA TWR
Warning: Do not use this data for real-world aviation or navigation. No guarantee of current accuracy is given.